Time;durP1;ratioP1;P1;durP2;ratioP2;P2;SDS_P1;SDS_P2;PMS_P1;PMS_P2;Temp;Humidity;BMP_temperature;BMP_pressure;BME280_temperature;BME280_humidity;BME280_pressure;Samples;Min_cycle;Max_cycle;Signal;HPM_P1;HPM_P2
2023/11/12 00:00:45;;;;;;;2.40;0.38;;;;;;;3.80;63.28;100323.13;4987226;28;20029;-71
2023/11/12 00:03:11;;;;;;;2.90;0.55;;;;;;;3.87;62.91;100328.19;4993831;28;20041;-70
2023/11/12 00:05:36;;;;;;;7.88;0.50;;;;;;;3.86;62.21;100321.31;4999643;28;20514;-71
2023/11/12 00:08:02;;;;;;;8.77;0.52;;;;;;;3.88;61.87;100328.16;5001198;28;20046;-71
2023/11/12 00:10:28;;;;;;;3.33;0.60;;;;;;;3.81;61.81;100329.16;5003164;28;20042;-70
2023/11/12 00:12:53;;;;;;;9.38;0.90;;;;;;;3.72;62.11;100334.53;5003214;28;20045;-68
2023/11/12 00:15:19;;;;;;;6.97;1.48;;;;;;;3.39;62.90;100335.13;4995733;28;22404;-68
2023/11/12 00:17:47;;;;;;;5.00;0.52;;;;;;;3.49;62.57;100330.66;4998701;28;20042;-68
2023/11/12 00:20:12;;;;;;;3.40;1.10;;;;;;;3.39;63.04;100331.72;4995769;28;20412;-69
2023/11/12 00:22:40;;;;;;;6.47;0.77;;;;;;;3.44;62.40;100335.06;5002884;28;20901;-69
2023/11/12 00:25:10;;;;;;;1.17;0.45;;;;;;;3.34;62.50;100331.81;5009582;28;20068;-71
2023/11/12 00:27:36;;;;;;;6.22;0.98;;;;;;;2.85;63.91;100332.63;4999491;28;20049;-68
2023/11/12 00:30:02;;;;;;;3.00;0.30;;;;;;;3.42;62.93;100334.22;5000770;28;20037;-71
2023/11/12 00:32:28;;;;;;;6.03;0.82;;;;;;;3.32;62.59;100333.56;4999856;28;20057;-71
2023/11/12 00:34:54;;;;;;;4.90;0.88;;;;;;;3.46;62.36;100335.88;4997982;28;20135;-71
2023/11/12 00:37:19;;;;;;;9.10;0.70;;;;;;;3.48;62.08;100335.84;4995518;28;20048;-71
2023/11/12 00:39:45;;;;;;;7.03;0.70;;;;;;;2.85;64.33;100331.78;5000355;28;20036;-71
2023/11/12 00:42:10;;;;;;;5.65;1.27;;;;;;;3.42;62.10;100333.38;5012875;28;20030;-69
2023/11/12 00:44:37;;;;;;;4.15;0.65;;;;;;;3.09;63.21;100331.38;4982887;28;20057;-71
2023/11/12 00:47:04;;;;;;;4.43;0.73;;;;;;;2.80;63.92;100338.72;4993469;28;20040;-68
2023/11/12 00:49:30;;;;;;;2.55;1.05;;;;;;;3.26;62.16;100337.94;5000901;28;20077;-76
2023/11/12 00:51:55;;;;;;;6.55;0.77;;;;;;;3.29;62.16;100331.03;5007259;28;20034;-68
2023/11/12 00:54:20;;;;;;;2.97;1.25;;;;;;;3.30;61.55;100319.81;4997352;28;20056;-69
2023/11/12 00:56:46;;;;;;;6.88;1.23;;;;;;;3.06;62.35;100330.56;5000980;28;20040;-70
2023/11/12 00:59:12;;;;;;;3.33;1.05;;;;;;;3.27;61.46;100329.31;4996898;28;20041;-69
2023/11/12 01:01:37;;;;;;;5.95;0.80;;;;;;;2.97;62.30;100337.56;4989065;28;20048;-69
2023/11/12 01:04:03;;;;;;;2.72;0.77;;;;;;;3.15;61.21;100336.41;4997453;28;20049;-68
2023/11/12 01:06:28;;;;;;;2.25;1.08;;;;;;;2.63;62.97;100334.69;5006840;28;20038;-69
2023/11/12 01:08:54;;;;;;;3.83;0.80;;;;;;;2.98;61.82;100333.28;5014144;28;20040;-68
2023/11/12 01:11:19;;;;;;;1.70;1.00;;;;;;;3.09;61.38;100331.38;4995287;28;20072;-68
2023/11/12 01:13:45;;;;;;;4.03;1.55;;;;;;;3.10;61.03;100337.38;4998167;28;20041;-69
2023/11/12 01:16:10;;;;;;;3.05;1.05;;;;;;;2.98;60.83;100343.63;4993253;28;20497;-69
2023/11/12 01:18:40;;;;;;;2.30;0.93;;;;;;;2.58;62.02;100339.09;5004581;28;20632;-69
2023/11/12 01:21:06;;;;;;;1.55;0.77;;;;;;;2.75;61.73;100337.06;4997694;28;20068;-69
2023/11/12 01:23:31;;;;;;;7.20;1.45;;;;;;;2.77;61.72;100331.91;4998616;28;20042;-70
2023/11/12 01:25:59;;;;;;;1.40;0.68;;;;;;;2.77;61.64;100340.47;5007692;28;20048;-69
2023/11/12 01:28:29;;;;;;;7.22;1.00;;;;;;;2.74;61.47;100337.97;4996286;28;21465;-70
2023/11/12 01:30:55;;;;;;;2.92;0.77;;;;;;;2.70;61.34;100344.03;5002357;28;20641;-70
2023/11/12 01:33:20;;;;;;;4.55;0.73;;;;;;;2.57;61.70;100340.78;5003025;28;20050;-69
2023/11/12 01:35:46;;;;;;;3.03;0.50;;;;;;;2.57;61.38;100347.69;5009392;28;20108;-69
2023/11/12 01:38:13;;;;;;;4.35;1.00;;;;;;;2.57;61.04;100342.53;4997859;28;20049;-69
2023/11/12 01:40:41;;;;;;;2.25;0.68;;;;;;;2.59;61.05;100340.78;5004199;28;20092;-69
2023/11/12 01:43:10;;;;;;;5.38;1.02;;;;;;;2.37;61.37;100335.09;4998459;28;20042;-69
2023/11/12 01:45:35;;;;;;;2.28;0.73;;;;;;;2.54;60.80;100347.75;4994720;28;20037;-70
2023/11/12 01:48:03;;;;;;;2.05;0.52;;;;;;;2.49;60.58;100339.22;5008511;28;20049;-69
2023/11/12 01:50:29;;;;;;;4.72;1.23;;;;;;;2.44;60.57;100341.00;5005197;28;20083;-69
2023/11/12 01:52:56;;;;;;;2.60;0.85;;;;;;;2.35;60.53;100335.13;5006370;28;20057;-68
2023/11/12 01:55:25;;;;;;;1.95;0.82;;;;;;;2.30;60.50;100336.91;4995583;28;20033;-69
2023/11/12 01:57:52;;;;;;;4.13;0.95;;;;;;;2.33;60.74;100330.84;5001767;28;20133;-70
2023/11/12 02:00:19;;;;;;;1.58;0.52;;;;;;;2.21;60.88;100334.47;5003724;28;20033;-69
2023/11/12 02:02:44;;;;;;;7.20;0.70;;;;;;;2.05;61.78;100340.72;5007853;28;20046;-69
2023/11/12 02:05:10;;;;;;;2.42;1.05;;;;;;;2.12;61.47;100344.91;5005398;28;20373;-71
2023/11/12 02:07:37;;;;;;;2.35;0.52;;;;;;;2.16;60.88;100338.84;5006495;28;20034;-81
2023/11/12 02:10:12;;;;;;;6.47;1.10;;;;;;;2.08;61.07;100344.06;5010718;28;20035;-82
2023/11/12 02:12:43;;;;;;;3.75;1.58;;;;;;;1.58;63.34;100334.41;5014045;28;20052;-80
2023/11/12 02:15:10;;;;;;;2.05;1.25;;;;;;;2.06;61.30;100329.50;5006336;28;20064;-80
2023/11/12 02:17:39;;;;;;;3.00;0.90;;;;;;;2.01;61.47;100344.19;5011998;28;20050;-82
2023/11/12 02:20:08;;;;;;;4.05;1.83;;;;;;;1.96;61.61;100339.09;5015955;28;20029;-82
2023/11/12 02:22:34;;;;;;;1.63;0.82;;;;;;;2.03;61.06;100340.72;5018313;28;20061;-71
2023/11/12 02:25:06;;;;;;;3.88;1.77;;;;;;;1.98;61.52;100342.50;5004636;28;20028;-71
2023/11/12 02:27:33;;;;;;;3.13;1.00;;;;;;;2.06;60.93;100337.25;4982386;28;20168;-72
2023/11/12 02:29:58;;;;;;;2.60;1.08;;;;;;;1.82;62.15;100331.53;5015306;28;20509;-71
2023/11/12 02:32:34;;;;;;;4.85;1.15;;;;;;;1.98;62.20;100326.19;4999131;28;20033;-76
2023/11/12 02:35:02;;;;;;;7.13;1.55;;;;;;;2.07;61.51;100331.22;5012210;28;20033;-76
2023/11/12 02:37:28;;;;;;;3.00;1.52;;;;;;;2.13;61.45;100332.00;5006248;28;20037;-76
2023/11/12 02:39:54;;;;;;;2.13;1.52;;;;;;;1.79;62.07;100331.56;5003651;28;20044;-77
2023/11/12 02:42:23;;;;;;;8.13;1.33;;;;;;;1.87;62.58;100334.91;4989517;28;20037;-76
2023/11/12 02:44:49;;;;;;;2.80;1.02;;;;;;;2.06;61.51;100335.50;4993804;28;20041;-74
2023/11/12 02:47:15;;;;;;;4.40;1.45;;;;;;;1.91;61.56;100335.72;5007854;28;20087;-75
2023/11/12 02:49:43;;;;;;;3.42;2.28;;;;;;;1.91;61.72;100336.56;4987284;28;20100;-73
2023/11/12 02:52:09;;;;;;;2.45;1.13;;;;;;;1.98;61.53;100333.94;4989705;28;20034;-73
2023/11/12 02:54:36;;;;;;;3.90;1.23;;;;;;;1.98;61.26;100337.34;5008372;28;20090;-73
2023/11/12 02:57:02;;;;;;;3.75;1.50;;;;;;;1.96;61.76;100333.09;5000924;28;20453;-73
2023/11/12 02:59:29;;;;;;;2.65;1.58;;;;;;;2.05;61.37;100335.56;4998433;28;20132;-71
2023/11/12 03:01:55;;;;;;;2.42;1.63;;;;;;;2.09;61.17;100342.38;5002741;28;20072;-74
2023/11/12 03:04:21;;;;;;;4.35;1.38;;;;;;;2.09;61.02;100334.63;4999082;28;20095;-75
2023/11/12 03:06:47;;;;;;;5.07;1.38;;;;;;;1.93;61.80;100340.00;4992933;28;20766;-74
2023/11/12 03:09:14;;;;;;;2.45;1.40;;;;;;;2.07;61.78;100336.38;5004924;28;20941;-74
2023/11/12 03:11:39;;;;;;;7.43;1.60;;;;;;;2.13;62.09;100344.00;4991705;28;20032;-74
2023/11/12 03:14:08;;;;;;;5.40;1.58;;;;;;;2.18;61.77;100347.41;5005486;28;20050;-74
2023/11/12 03:16:34;;;;;;;2.47;1.63;;;;;;;2.21;61.53;100334.47;5000132;28;20035;-74
2023/11/12 03:19:00;;;;;;;5.38;1.58;;;;;;;2.33;61.15;100334.31;4992431;28;20042;-74
2023/11/12 03:21:26;;;;;;;2.53;0.93;;;;;;;2.31;61.36;100341.19;4985473;28;20128;-75
2023/11/12 03:23:52;;;;;;;3.92;1.77;;;;;;;2.29;61.83;100344.69;5005590;28;20045;-74
2023/11/12 03:26:18;;;;;;;1.98;1.33;;;;;;;2.23;62.02;100337.88;5000624;28;20049;-75
2023/11/12 03:28:44;;;;;;;9.52;1.40;;;;;;;2.40;61.89;100337.63;5000885;28;20360;-75
2023/11/12 03:31:10;;;;;;;3.20;1.40;;;;;;;2.51;61.34;100340.03;5017783;28;20083;-74
2023/11/12 03:33:35;;;;;;;2.63;1.23;;;;;;;2.60;61.03;100341.63;4984483;28;20499;-74
2023/11/12 03:36:02;;;;;;;4.45;1.67;;;;;;;2.53;61.92;100339.16;4993630;28;20511;-74
2023/11/12 03:38:28;;;;;;;8.90;1.33;;;;;;;2.71;61.45;100340.59;4994805;28;20053;-75
2023/11/12 03:40:55;;;;;;;3.78;1.30;;;;;;;2.67;62.02;100344.09;5002716;28;20034;-74
2023/11/12 03:43:20;;;;;;;2.58;1.20;;;;;;;2.84;61.73;100337.81;4988222;28;20049;-75
2023/11/12 03:45:45;;;;;;;5.18;1.58;;;;;;;2.91;61.70;100336.81;4991759;28;20087;-74
2023/11/12 03:48:11;;;;;;;2.25;1.02;;;;;;;2.82;61.94;100337.81;4999950;28;20061;-74
2023/11/12 03:50:37;;;;;;;2.67;1.60;;;;;;;2.91;61.82;100331.66;4982042;28;20041;-75
2023/11/12 03:53:02;;;;;;;6.43;1.52;;;;;;;2.99;61.47;100329.81;4987850;28;20401;-74
2023/11/12 03:55:28;;;;;;;5.15;1.17;;;;;;;2.92;61.55;100336.81;4981834;28;20056;-75
2023/11/12 03:57:53;;;;;;;2.90;1.33;;;;;;;2.91;61.43;100332.53;4986421;28;20052;-75
2023/11/12 04:00:19;;;;;;;5.32;1.15;;;;;;;2.84;61.28;100324.91;4986503;28;20044;-74
2023/11/12 04:02:45;;;;;;;3.75;1.30;;;;;;;2.67;61.96;100338.94;4987067;28;20057;-73
2023/11/12 04:05:10;;;;;;;2.58;1.65;;;;;;;2.72;61.58;100326.81;5003877;28;20030;-72
2023/11/12 04:07:36;;;;;;;3.30;2.17;;;;;;;2.75;61.05;100321.59;4996219;28;20049;-73
2023/11/12 04:10:05;;;;;;;2.92;2.20;;;;;;;2.54;62.25;100330.53;5007755;28;20053;-73
2023/11/12 04:12:32;;;;;;;7.03;3.05;;;;;;;2.63;61.52;100328.69;4995745;28;20521;-73
2023/11/12 04:15:00;;;;;;;3.40;2.03;;;;;;;2.47;62.15;100330.66;5008705;28;20036;-72
2023/11/12 04:17:25;;;;;;;7.35;3.15;;;;;;;2.28;62.81;100330.91;4992928;28;20060;-73
2023/11/12 04:19:51;;;;;;;4.68;2.95;;;;;;;2.46;62.41;100328.94;5002253;28;20065;-73
2023/11/12 04:22:17;;;;;;;12.45;4.65;;;;;;;2.45;62.63;100342.72;4988967;28;20041;-70
2023/11/12 04:24:43;;;;;;;9.82;5.35;;;;;;;2.64;62.30;100338.97;5016788;28;20464;-68
2023/11/12 04:27:09;;;;;;;17.25;4.70;;;;;;;2.51;62.81;100330.59;5002972;28;20116;-68
2023/11/12 04:29:36;;;;;;;8.50;4.28;;;;;;;2.55;63.13;100334.84;4992141;28;20141;-69
2023/11/12 04:32:03;;;;;;;11.07;4.80;;;;;;;2.59;63.27;100334.78;4989740;28;20040;-74
2023/11/12 04:34:31;;;;;;;7.68;4.03;;;;;;;2.89;62.33;100336.00;4985930;28;20045;-68
2023/11/12 04:36:57;;;;;;;12.68;5.75;;;;;;;2.48;63.74;100337.50;4998713;28;20037;-68
2023/11/12 04:39:23;;;;;;;11.20;4.97;;;;;;;2.82;62.62;100342.16;4997036;28;20689;-67
2023/11/12 04:41:48;;;;;;;13.10;5.75;;;;;;;2.41;63.52;100341.06;4999214;28;20048;-67
2023/11/12 04:44:14;;;;;;;11.38;6.05;;;;;;;2.44;63.50;100341.00;5000158;28;20116;-65
2023/11/12 04:46:39;;;;;;;9.85;5.97;;;;;;;2.77;63.08;100340.47;4993148;28;21255;-68
2023/11/12 04:49:05;;;;;;;11.30;6.00;;;;;;;2.68;63.12;100345.78;5006299;28;20034;-69
2023/11/12 04:51:32;;;;;;;11.13;6.00;;;;;;;2.85;62.28;100349.84;4995313;28;20416;-69
2023/11/12 04:53:57;;;;;;;14.18;5.78;;;;;;;2.92;61.81;100341.13;5006636;28;20153;-69
2023/11/12 04:56:22;;;;;;;17.50;7.05;;;;;;;2.84;62.16;100351.56;4994066;28;20120;-70
2023/11/12 04:58:49;;;;;;;11.80;4.97;;;;;;;2.85;61.84;100352.44;4999459;28;20041;-69
2023/11/12 05:01:14;;;;;;;12.25;6.05;;;;;;;2.84;61.88;100345.56;4998920;28;20038;-69
2023/11/12 05:03:40;;;;;;;13.43;6.35;;;;;;;2.65;62.91;100348.44;4995256;28;20055;-70
2023/11/12 05:06:08;;;;;;;11.57;5.85;;;;;;;2.77;62.19;100357.72;4982761;28;20038;-70
2023/11/12 05:08:34;;;;;;;11.30;6.70;;;;;;;2.61;62.47;100359.69;4993594;28;20467;-70
2023/11/12 05:11:00;;;;;;;13.18;5.63;;;;;;;2.94;62.08;100357.44;5001636;28;20022;-69
2023/11/12 05:13:25;;;;;;;10.27;5.38;;;;;;;2.61;62.20;100364.84;4994305;28;20105;-69
2023/11/12 05:15:51;;;;;;;9.77;5.75;;;;;;;2.74;62.28;100361.19;4999990;28;20064;-69
2023/11/12 05:18:17;;;;;;;11.70;6.13;;;;;;;2.89;61.88;100364.38;5002725;28;20057;-70
2023/11/12 05:20:43;;;;;;;10.57;5.85;;;;;;;2.92;61.97;100369.53;5002131;28;20593;-70
2023/11/12 05:23:08;;;;;;;12.40;6.30;;;;;;;2.61;62.03;100380.31;5001228;28;20053;-67
2023/11/12 05:25:34;;;;;;;9.95;5.57;;;;;;;2.60;62.99;100383.78;5001456;28;20034;-69
2023/11/12 05:27:59;;;;;;;13.80;5.85;;;;;;;2.87;61.46;100384.25;4999397;28;20423;-70
2023/11/12 05:30:25;;;;;;;10.93;5.07;;;;;;;2.67;61.94;100387.97;4994471;28;20034;-70
2023/11/12 05:32:51;;;;;;;13.68;6.30;;;;;;;2.56;62.62;100384.69;5000227;28;20049;-70
2023/11/12 05:35:17;;;;;;;14.48;6.55;;;;;;;2.51;62.03;100389.06;4999934;28;20042;-70
2023/11/12 05:37:43;;;;;;;11.55;6.20;;;;;;;2.61;62.32;100385.47;4995427;28;20088;-70
2023/11/12 05:40:09;;;;;;;11.73;5.78;;;;;;;2.66;61.59;100394.00;5005460;28;20633;-68
2023/11/12 05:42:36;;;;;;;9.48;5.15;;;;;;;2.28;62.69;100386.78;4994448;28;20838;-71
2023/11/12 05:45:02;;;;;;;11.32;5.85;;;;;;;2.30;62.90;100385.91;5001725;28;20026;-69
2023/11/12 05:47:30;;;;;;;15.73;6.38;;;;;;;2.30;63.03;100387.63;4995473;28;20025;-70
2023/11/12 05:49:55;;;;;;;11.55;6.35;;;;;;;1.84;64.03;100386.50;5001815;28;20563;-69
2023/11/12 05:52:23;;;;;;;13.05;6.03;;;;;;;2.45;62.26;100391.75;4998914;28;20473;-70
2023/11/12 05:54:49;;;;;;;11.82;6.00;;;;;;;2.21;62.73;100380.03;5000154;28;20037;-70
2023/11/12 05:57:14;;;;;;;15.13;6.85;;;;;;;2.20;63.12;100384.34;4999044;28;20038;-67
2023/11/12 05:59:40;;;;;;;14.52;6.30;;;;;;;2.22;62.74;100394.59;4978739;28;20100;-75
2023/11/12 06:02:05;;;;;;;15.88;6.47;;;;;;;2.06;63.13;100388.78;4988159;28;20603;-72
2023/11/12 06:04:31;;;;;;;12.07;5.63;;;;;;;2.21;62.83;100386.03;4992551;28;20588;-74
2023/11/12 06:06:56;;;;;;;11.70;5.90;;;;;;;2.06;63.67;100393.94;5000045;28;20037;-74
2023/11/12 06:09:22;;;;;;;14.52;7.25;;;;;;;2.17;63.14;100394.66;5000393;28;20731;-76
2023/11/12 06:11:51;;;;;;;13.57;6.35;;;;;;;2.32;62.46;100397.06;5007453;28;20868;-70
2023/11/12 06:14:17;;;;;;;12.43;6.18;;;;;;;1.97;63.73;100396.66;5000842;28;20068;-72
2023/11/12 06:16:42;;;;;;;13.38;6.35;;;;;;;2.26;62.85;100398.84;5002593;28;20029;-80
2023/11/12 06:19:07;;;;;;;13.70;5.72;;;;;;;2.40;62.48;100398.66;4991196;28;20547;-73
2023/11/12 06:21:33;;;;;;;11.38;6.57;;;;;;;2.45;62.16;100400.31;4997225;28;20038;-69
2023/11/12 06:23:58;;;;;;;15.65;7.25;;;;;;;2.38;62.78;100403.88;5002106;28;20060;-69
2023/11/12 06:26:24;;;;;;;11.25;5.65;;;;;;;2.38;62.48;100397.84;5003598;28;20044;-69
2023/11/12 06:28:49;;;;;;;15.88;6.63;;;;;;;2.44;62.62;100402.91;4997722;28;20037;-69
2023/11/12 06:31:16;;;;;;;11.60;5.28;;;;;;;2.27;63.29;100401.44;5004709;28;20026;-68
2023/11/12 06:33:44;;;;;;;11.45;6.85;;;;;;;2.02;64.04;100406.03;5004685;28;20049;-68
2023/11/12 06:36:16;;;;;;;14.73;7.70;;;;;;;2.41;63.02;100405.56;5001637;28;20030;-70
2023/11/12 06:38:41;;;;;;;16.80;8.25;;;;;;;1.83;64.46;100399.38;4997537;28;20338;-70
2023/11/12 06:41:09;;;;;;;14.88;6.97;;;;;;;2.12;64.12;100406.78;5002752;28;20045;-68
2023/11/12 06:43:35;;;;;;;12.05;6.43;;;;;;;2.32;63.20;100407.38;4995394;28;20053;-69
2023/11/12 06:46:00;;;;;;;14.32;6.90;;;;;;;2.33;63.26;100411.66;5005240;28;20029;-76
2023/11/12 06:48:26;;;;;;;12.15;6.03;;;;;;;2.60;62.38;100417.31;5008098;28;20421;-80
2023/11/12 06:50:51;;;;;;;12.52;6.72;;;;;;;2.72;62.03;100424.88;5008747;28;20095;-71
2023/11/12 06:53:17;;;;;;;12.73;6.30;;;;;;;2.52;62.03;100421.72;5002060;28;20089;-69
2023/11/12 06:55:42;;;;;;;12.35;5.78;;;;;;;2.41;62.64;100421.88;4983012;28;20118;-72
2023/11/12 06:58:08;;;;;;;13.38;7.53;;;;;;;2.54;62.06;100419.97;5003167;28;20053;-72
2023/11/12 07:00:36;;;;;;;15.25;6.90;;;;;;;2.29;62.70;100420.31;4998792;28;20037;-71
2023/11/12 07:03:01;;;;;;;14.85;7.82;;;;;;;2.32;62.03;100425.41;5001268;28;20045;-68
2023/11/12 07:05:30;;;;;;;12.85;6.93;;;;;;;2.39;62.34;100418.47;5001049;28;20396;-68
2023/11/12 07:07:56;;;;;;;14.80;8.07;;;;;;;2.22;63.08;100423.84;5002118;28;20049;-70
2023/11/12 07:10:22;;;;;;;14.77;8.10;;;;;;;2.16;62.98;100416.19;5002953;28;20539;-70
2023/11/12 07:12:47;;;;;;;17.23;8.32;;;;;;;2.52;62.22;100426.88;4983265;28;21294;-67
2023/11/12 07:15:13;;;;;;;36.65;10.95;;;;;;;2.35;62.30;100430.56;5006731;28;20113;-67
2023/11/12 07:17:38;;;;;;;20.40;8.82;;;;;;;2.44;62.96;100432.13;4995839;28;20494;-67
2023/11/12 07:20:05;;;;;;;21.63;10.20;;;;;;;2.45;62.57;100431.28;5002744;28;20029;-69
2023/11/12 07:22:31;;;;;;;17.67;9.27;;;;;;;2.42;62.62;100428.75;4996093;28;20025;-70
2023/11/12 07:24:57;;;;;;;20.30;11.55;;;;;;;1.78;64.71;100432.09;4999074;28;20073;-68
2023/11/12 07:27:23;;;;;;;20.40;10.00;;;;;;;2.13;63.62;100429.97;5006241;28;20025;-66
2023/11/12 07:29:48;;;;;;;17.90;10.23;;;;;;;2.60;62.79;100435.38;4994118;28;20041;-66
2023/11/12 07:32:14;;;;;;;20.05;10.48;;;;;;;2.88;61.81;100445.31;4998785;28;20127;-71
2023/11/12 07:34:39;;;;;;;17.33;9.30;;;;;;;2.89;62.20;100436.66;4978870;28;20061;-72
2023/11/12 07:37:05;;;;;;;19.90;11.35;;;;;;;2.91;61.95;100440.09;5000570;28;20407;-72
2023/11/12 07:39:30;;;;;;;26.58;10.52;;;;;;;2.52;62.82;100443.22;4996693;28;20053;-72
2023/11/12 07:41:56;;;;;;;18.92;9.63;;;;;;;2.82;61.99;100451.38;4989281;28;20044;-72
2023/11/12 07:44:22;;;;;;;16.50;9.73;;;;;;;2.79;61.91;100445.44;5001058;28;20053;-71
2023/11/12 07:46:49;;;;;;;16.83;10.52;;;;;;;3.08;61.40;100447.59;4981510;28;20033;-72
2023/11/12 07:49:15;;;;;;;24.15;12.43;;;;;;;2.86;61.60;100444.47;5006421;28;20041;-70
2023/11/12 07:51:41;;;;;;;20.90;11.90;;;;;;;2.97;61.16;100456.34;4996963;28;20135;-75
2023/11/12 07:54:07;;;;;;;19.45;11.38;;;;;;;3.02;61.38;100453.69;5007179;28;20431;-67
2023/11/12 07:56:34;;;;;;;18.10;10.32;;;;;;;2.64;61.94;100456.81;5003476;28;20332;-67
2023/11/12 07:59:03;;;;;;;19.90;11.35;;;;;;;3.03;62.08;100455.41;4997291;28;20835;-69
2023/11/12 08:01:29;;;;;;;22.20;12.10;;;;;;;3.00;61.86;100460.59;5000911;28;20497;-68
2023/11/12 08:03:56;;;;;;;20.05;11.93;;;;;;;2.71;62.44;100464.47;4995952;28;20056;-68
2023/11/12 08:06:22;;;;;;;17.90;10.38;;;;;;;2.77;62.43;100469.53;5008246;28;20097;-74
2023/11/12 08:08:48;;;;;;;18.42;11.68;;;;;;;3.15;61.58;100465.53;5001230;28;20065;-74
2023/11/12 08:11:14;;;;;;;17.98;10.88;;;;;;;2.75;62.02;100473.84;4992624;28;20413;-68
2023/11/12 08:13:43;;;;;;;15.88;10.10;;;;;;;3.03;61.52;100481.22;4994290;28;20061;-66
2023/11/12 08:16:10;;;;;;;21.17;11.85;;;;;;;2.98;61.48;100480.44;5000056;28;20758;-69
2023/11/12 08:18:37;;;;;;;20.20;10.90;;;;;;;3.32;61.13;100477.38;4995951;28;20046;-67
2023/11/12 08:21:03;;;;;;;18.13;10.98;;;;;;;3.12;61.52;100475.06;5009235;28;20512;-74
2023/11/12 08:23:28;;;;;;;17.08;9.88;;;;;;;3.00;62.15;100486.41;5002207;28;20067;-79
2023/11/12 08:25:55;;;;;;;16.75;9.52;;;;;;;2.96;61.92;100484.78;4999122;28;20046;-68
2023/11/12 08:28:23;;;;;;;18.35;9.95;;;;;;;3.28;61.41;100475.69;5006398;28;20144;-69
2023/11/12 08:30:49;;;;;;;17.85;9.10;;;;;;;3.44;61.13;100476.31;4996037;28;20039;-72
2023/11/12 08:33:14;;;;;;;15.50;9.25;;;;;;;3.49;61.05;100488.28;4999500;28;20469;-66
2023/11/12 08:35:40;;;;;;;21.15;9.27;;;;;;;3.32;61.59;100508.38;4994962;28;20037;-68
2023/11/12 08:38:06;;;;;;;15.10;9.73;;;;;;;3.42;61.43;100509.91;4996461;28;20435;-68
2023/11/12 08:40:32;;;;;;;18.02;9.98;;;;;;;3.81;60.68;100517.88;4999029;28;21020;-67
2023/11/12 08:42:57;;;;;;;18.55;10.80;;;;;;;3.92;60.44;100505.63;4993890;28;20139;-68
2023/11/12 08:45:23;;;;;;;17.05;10.00;;;;;;;4.05;59.72;100505.38;4997634;28;20119;-67
2023/11/12 08:47:48;;;;;;;21.30;9.23;;;;;;;3.85;60.01;100508.31;4993109;28;20061;-68
2023/11/12 08:50:14;;;;;;;16.17;9.77;;;;;;;4.10;60.05;100503.59;4997657;28;20038;-68
2023/11/12 08:52:39;;;;;;;14.15;8.77;;;;;;;4.28;59.77;100500.63;4995590;28;20037;-68
2023/11/12 08:55:08;;;;;;;14.02;8.50;;;;;;;4.93;58.60;100501.91;4999768;28;20517;-67
2023/11/12 08:57:37;;;;;;;14.40;8.68;;;;;;;5.26;56.96;100489.91;4997420;28;20033;-68
2023/11/12 09:00:06;;;;;;;13.82;8.90;;;;;;;5.13;57.70;100494.53;4998372;28;20038;-68
2023/11/12 09:02:32;;;;;;;11.15;7.28;;;;;;;5.09;56.96;100495.47;4993438;28;20125;-67
2023/11/12 09:04:59;;;;;;;13.77;7.50;;;;;;;4.98;57.20;100500.91;4992828;28;20029;-68
2023/11/12 09:07:25;;;;;;;19.95;7.72;;;;;;;4.91;56.88;100504.50;4997132;28;20030;-67
2023/11/12 09:09:50;;;;;;;9.32;7.32;;;;;;;4.15;58.74;100506.94;4992578;28;20038;-67
2023/11/12 09:12:17;;;;;;;13.25;6.95;;;;;;;4.63;57.85;100504.22;5000027;28;20037;-68
2023/11/12 09:14:42;;;;;;;13.07;7.05;;;;;;;4.34;58.35;100513.47;4994646;28;20146;-67
2023/11/12 09:17:08;;;;;;;20.88;7.90;;;;;;;4.34;58.24;100504.81;4995809;28;20136;-67
2023/11/12 09:19:33;;;;;;;13.15;8.18;;;;;;;4.88;58.22;100514.06;4997147;28;20061;-67
2023/11/12 09:21:59;;;;;;;12.50;8.25;;;;;;;5.14;57.62;100508.31;4995060;28;20095;-67
2023/11/12 09:24:25;;;;;;;14.65;8.50;;;;;;;5.53;57.29;100509.13;4996745;28;20500;-67
2023/11/12 09:26:50;;;;;;;21.95;9.10;;;;;;;5.83;55.28;100510.06;4993574;28;20049;-68
2023/11/12 09:29:16;;;;;;;15.00;7.93;;;;;;;6.77;54.44;100512.66;4994293;28;20051;-67
2023/11/12 09:31:42;;;;;;;10.00;6.10;;;;;;;6.50;52.84;100511.75;4991463;28;20038;-67
2023/11/12 09:34:07;;;;;;;11.38;6.38;;;;;;;6.94;53.24;100516.53;5000100;28;20068;-68
2023/11/12 09:36:35;;;;;;;10.32;6.10;;;;;;;7.51;51.35;100512.97;4997644;28;20121;-67
2023/11/12 09:39:03;;;;;;;12.82;6.68;;;;;;;7.51;50.24;100519.03;4998546;28;20045;-67
2023/11/12 09:41:30;;;;;;;11.45;6.47;;;;;;;7.99;50.12;100527.84;4999994;28;20034;-67
2023/11/12 09:43:58;;;;;;;7.43;4.70;;;;;;;7.83;50.23;100521.50;4985147;28;20053;-67
2023/11/12 09:46:24;;;;;;;7.40;5.18;;;;;;;7.15;51.10;100528.00;5001964;28;20040;-68
2023/11/12 09:48:52;;;;;;;10.65;6.65;;;;;;;6.61;54.16;100529.63;4988270;28;20041;-68
2023/11/12 09:51:18;;;;;;;13.32;6.18;;;;;;;7.02;52.91;100528.41;4996096;28;20041;-68
2023/11/12 09:53:47;;;;;;;9.55;5.32;;;;;;;6.79;53.80;100529.06;4987117;28;20049;-68
2023/11/12 09:56:13;;;;;;;9.65;5.10;;;;;;;6.25;54.53;100527.97;4982095;28;20501;-68
2023/11/12 09:58:48;;;;;;;8.93;5.88;;;;;;;6.46;54.89;100528.28;4994492;28;20037;-68
2023/11/12 10:01:13;;;;;;;7.70;4.03;;;;;;;6.33;54.63;100533.00;4991805;28;20654;-67
2023/11/12 10:03:43;;;;;;;9.23;5.32;;;;;;;5.78;56.45;100524.91;4997749;28;20041;-68
2023/11/12 10:06:11;;;;;;;9.38;5.35;;;;;;;6.18;57.34;100523.00;4984644;28;20041;-68
2023/11/12 10:08:37;;;;;;;6.47;4.57;;;;;;;6.41;56.25;100523.22;4994032;28;20049;-68
2023/11/12 10:11:19;;;;;;;10.02;5.18;;;;;;;6.15;56.23;100523.94;4991220;28;20033;-67
2023/11/12 10:13:46;;;;;;;8.48;5.32;;;;;;;6.20;56.74;100518.63;4989379;28;20124;-68
2023/11/12 10:16:31;;;;;;;8.35;5.15;;;;;;;6.04;56.58;100518.19;4995141;28;20183;-67
2023/11/12 10:19:12;;;;;;;7.30;5.32;;;;;;;5.48;58.08;100521.34;4990129;28;20489;-70
2023/11/12 10:21:54;;;;;;;12.55;5.85;;;;;;;4.86;59.61;100521.88;4991615;28;20065;-67
2023/11/12 10:24:19;;;;;;;;;;;;;;;5.59;58.69;100521.06;4994216;28;20145;-68
2023/11/12 10:26:45;;;;;;;7.88;5.47;;;;;;;5.63;58.94;100520.94;4993751;28;20020;-68
2023/11/12 10:29:23;;;;;;;9.77;5.20;;;;;;;6.61;56.90;100522.66;4998128;28;20397;-68
2023/11/12 10:31:49;;;;;;;8.27;6.03;;;;;;;6.65;55.56;100516.50;5007163;28;20037;-69
2023/11/12 10:34:17;;;;;;;8.40;5.38;;;;;;;6.23;56.34;100521.13;4994301;28;20042;-67
2023/11/12 10:37:01;;;;;;;8.75;5.85;;;;;;;6.43;56.62;100520.59;5001020;28;20030;-66
2023/11/12 10:39:44;;;;;;;8.68;5.60;;;;;;;6.26;56.95;100531.41;4985349;28;20599;-68
2023/11/12 10:42:21;;;;;;;10.88;5.88;;;;;;;6.22;55.22;100525.47;4993155;28;20085;-68
2023/11/12 10:44:57;;;;;;;8.70;5.28;;;;;;;5.20;57.60;100526.31;4995564;28;20069;-67
2023/11/12 10:47:29;;;;;;;10.57;6.13;;;;;;;5.40;57.68;100529.28;4999389;28;20296;-68
2023/11/12 10:49:55;;;;;;;9.20;5.78;;;;;;;5.86;56.60;100537.69;4990897;28;20030;-67
2023/11/12 10:52:22;;;;;;;9.50;5.50;;;;;;;5.96;55.51;100530.50;4993751;28;20450;-67
2023/11/12 10:54:50;;;;;;;6.82;5.47;;;;;;;6.08;55.97;100537.94;4993033;28;20046;-67
2023/11/12 10:57:20;;;;;;;14.77;5.43;;;;;;;6.04;56.12;100536.34;4994251;28;20492;-69
2023/11/12 10:59:48;;;;;;;7.78;5.15;;;;;;;6.95;55.37;100533.81;4991774;28;20050;-67
2023/11/12 11:02:19;;;;;;;6.30;4.47;;;;;;;6.52;54.76;100522.09;4994895;28;20484;-68
2023/11/12 11:04:46;;;;;;;8.27;4.53;;;;;;;6.16;55.49;100529.97;4965274;28;20064;-67
2023/11/12 11:07:13;;;;;;;8.38;5.63;;;;;;;6.78;55.44;100524.78;4985972;28;20492;-68
2023/11/12 11:09:39;;;;;;;8.93;5.45;;;;;;;6.47;55.42;100530.00;4994463;28;20195;-68
2023/11/12 11:12:04;;;;;;;8.55;5.43;;;;;;;6.07;56.50;100526.72;4989696;28;20037;-68
2023/11/12 11:14:32;;;;;;;5.63;4.30;;;;;;;5.66;56.89;100526.06;4994108;28;20037;-68
2023/11/12 11:17:00;;;;;;;7.45;4.95;;;;;;;5.47;57.34;100514.44;4992142;28;20037;-68
2023/11/12 11:19:44;;;;;;;10.73;5.30;;;;;;;6.32;56.17;100514.88;4992644;28;20042;-67
2023/11/12 11:22:25;;;;;;;9.15;5.20;;;;;;;6.17;55.90;100513.50;4989285;28;20041;-68
2023/11/12 11:24:54;;;;;;;6.78;4.97;;;;;;;6.57;54.97;100515.00;4995436;28;20042;-68
2023/11/12 11:27:28;;;;;;;7.35;4.82;;;;;;;6.37;54.95;100508.63;4993470;28;20572;-67